sensor_id;sensor_type;location;lat;lon;timestamp;pressure;altitude;pressure_sealevel;temperature;humidity
60676;BME280;46716;38.014;-7.874;2022-11-15T00:00:20;100210.66;;;14.81;100.00
60676;BME280;46716;38.014;-7.874;2022-11-15T00:02:40;100213.47;;;14.78;100.00
60676;BME280;46716;38.014;-7.874;2022-11-15T00:04:59;100205.66;;;14.75;100.00
60676;BME280;46716;38.014;-7.874;2022-11-15T00:07:19;100204.78;;;14.74;100.00
60676;BME280;46716;38.014;-7.874;2022-11-15T00:09:38;100196.81;;;14.74;100.00
60676;BME280;46716;38.014;-7.874;2022-11-15T00:11:57;100192.53;;;14.72;100.00
60676;BME280;46716;38.014;-7.874;2022-11-15T00:14:17;100198.50;;;14.75;100.00
60676;BME280;46716;38.014;-7.874;2022-11-15T00:16:36;100187.78;;;14.77;100.00
60676;BME280;46716;38.014;-7.874;2022-11-15T00:18:56;100175.06;;;14.67;100.00
60676;BME280;46716;38.014;-7.874;2022-11-15T00:21:17;100185.94;;;14.79;100.00
60676;BME280;46716;38.014;-7.874;2022-11-15T00:23:36;100187.47;;;14.83;100.00
60676;BME280;46716;38.014;-7.874;2022-11-15T00:25:57;100191.00;;;14.84;100.00
60676;BME280;46716;38.014;-7.874;2022-11-15T00:28:17;100192.59;;;14.86;100.00
60676;BME280;46716;38.014;-7.874;2022-11-15T00:30:36;100174.50;;;14.77;100.00
60676;BME280;46716;38.014;-7.874;2022-11-15T00:32:55;100186.53;;;14.84;100.00
60676;BME280;46716;38.014;-7.874;2022-11-15T00:35:15;100179.50;;;14.83;100.00
60676;BME280;46716;38.014;-7.874;2022-11-15T00:37:35;100182.25;;;14.82;100.00
60676;BME280;46716;38.014;-7.874;2022-11-15T00:39:55;100182.16;;;14.83;100.00
60676;BME280;46716;38.014;-7.874;2022-11-15T00:42:14;100184.81;;;14.83;100.00
60676;BME280;46716;38.014;-7.874;2022-11-15T00:44:34;100173.63;;;14.78;100.00
60676;BME280;46716;38.014;-7.874;2022-11-15T00:46:53;100176.94;;;14.82;100.00
60676;BME280;46716;38.014;-7.874;2022-11-15T00:49:13;100168.22;;;14.79;100.00
60676;BME280;46716;38.014;-7.874;2022-11-15T00:51:32;100162.25;;;14.74;100.00
60676;BME280;46716;38.014;-7.874;2022-11-15T00:53:55;100170.97;;;14.78;100.00
60676;BME280;46716;38.014;-7.874;2022-11-15T00:56:14;100162.16;;;14.76;100.00
60676;BME280;46716;38.014;-7.874;2022-11-15T00:58:34;100166.47;;;14.78;100.00
60676;BME280;46716;38.014;-7.874;2022-11-15T01:00:53;100160.47;;;14.75;100.00
60676;BME280;46716;38.014;-7.874;2022-11-15T01:03:13;100154.28;;;14.74;100.00
60676;BME280;46716;38.014;-7.874;2022-11-15T01:05:33;100155.16;;;14.75;100.00
60676;BME280;46716;38.014;-7.874;2022-11-15T01:07:53;100153.47;;;14.74;100.00
60676;BME280;46716;38.014;-7.874;2022-11-15T01:10:12;100147.28;;;14.73;100.00
60676;BME280;46716;38.014;-7.874;2022-11-15T01:12:32;100153.47;;;14.74;100.00
60676;BME280;46716;38.014;-7.874;2022-11-15T01:14:51;100144.63;;;14.73;100.00
60676;BME280;46716;38.014;-7.874;2022-11-15T01:17:11;100135.88;;;14.71;100.00
60676;BME280;46716;38.014;-7.874;2022-11-15T01:19:30;100135.59;;;14.76;100.00
60676;BME280;46716;38.014;-7.874;2022-11-15T01:21:50;100132.94;;;14.76;100.00
60676;BME280;46716;38.014;-7.874;2022-11-15T01:24:12;100122.22;;;14.77;100.00
60676;BME280;46716;38.014;-7.874;2022-11-15T01:26:33;100134.31;;;14.83;100.00
60676;BME280;46716;38.014;-7.874;2022-11-15T01:28:52;100130.72;;;14.84;100.00
60676;BME280;46716;38.014;-7.874;2022-11-15T01:31:20;100124.47;;;14.85;100.00
60676;BME280;46716;38.014;-7.874;2022-11-15T01:33:40;100122.44;;;14.89;100.00
60676;BME280;46716;38.014;-7.874;2022-11-15T01:36:07;100127.50;;;14.94;100.00
60676;BME280;46716;38.014;-7.874;2022-11-15T01:38:26;100123.03;;;14.94;100.00
60676;BME280;46716;38.014;-7.874;2022-11-15T01:40:45;100124.84;;;14.94;100.00
60676;BME280;46716;38.014;-7.874;2022-11-15T01:45:43;100131.97;;;14.93;100.00
60676;BME280;46716;38.014;-7.874;2022-11-15T01:48:07;100131.78;;;14.96;100.00
60676;BME280;46716;38.014;-7.874;2022-11-15T01:50:31;100128.53;;;14.91;100.00
60676;BME280;46716;38.014;-7.874;2022-11-15T01:52:51;100128.63;;;14.89;100.00
60676;BME280;46716;38.014;-7.874;2022-11-15T01:55:18;100130.50;;;14.87;100.00
60676;BME280;46716;38.014;-7.874;2022-11-15T01:57:39;100119.22;;;14.84;100.00
60676;BME280;46716;38.014;-7.874;2022-11-15T02:00:00;100127.03;;;14.87;100.00
60676;BME280;46716;38.014;-7.874;2022-11-15T02:02:20;100122.94;;;14.81;100.00
60676;BME280;46716;38.014;-7.874;2022-11-15T02:04:45;100128.06;;;14.84;100.00
60676;BME280;46716;38.014;-7.874;2022-11-15T02:07:06;100126.53;;;14.80;100.00
60676;BME280;46716;38.014;-7.874;2022-11-15T02:09:27;100112.63;;;14.75;100.00
60676;BME280;46716;38.014;-7.874;2022-11-15T02:11:48;100128.69;;;14.73;100.00
60676;BME280;46716;38.014;-7.874;2022-11-15T02:14:08;100126.88;;;14.74;100.00
60676;BME280;46716;38.014;-7.874;2022-11-15T02:19:47;100116.34;;;14.72;100.00
60676;BME280;46716;38.014;-7.874;2022-11-15T02:25:16;100123.19;;;14.76;100.00
60676;BME280;46716;38.014;-7.874;2022-11-15T02:28:05;100109.75;;;14.79;100.00
60676;BME280;46716;38.014;-7.874;2022-11-15T02:35:58;100119.13;;;14.85;100.00
60676;BME280;46716;38.014;-7.874;2022-11-15T02:38:54;100118.09;;;14.88;100.00
60676;BME280;46716;38.014;-7.874;2022-11-15T02:41:27;100102.31;;;14.85;100.00
60676;BME280;46716;38.014;-7.874;2022-11-15T02:43:56;100102.59;;;14.80;100.00
60676;BME280;46716;38.014;-7.874;2022-11-15T02:49:19;100106.72;;;14.86;100.00
60676;BME280;46716;38.014;-7.874;2022-11-15T02:51:41;100104.25;;;14.83;100.00
60676;BME280;46716;38.014;-7.874;2022-11-15T02:54:02;100100.72;;;14.82;100.00
60676;BME280;46716;38.014;-7.874;2022-11-15T02:56:21;100087.63;;;14.79;100.00
60676;BME280;46716;38.014;-7.874;2022-11-15T02:59:00;100091.69;;;14.85;100.00
60676;BME280;46716;38.014;-7.874;2022-11-15T03:06:48;100090.66;;;14.87;100.00
60676;BME280;46716;38.014;-7.874;2022-11-15T03:09:55;100088.84;;;14.88;100.00
60676;BME280;46716;38.014;-7.874;2022-11-15T03:12:25;100078.31;;;14.86;100.00
60676;BME280;46716;38.014;-7.874;2022-11-15T03:14:57;100082.41;;;14.92;100.00
60676;BME280;46716;38.014;-7.874;2022-11-15T03:17:25;100091.06;;;14.96;100.00
60676;BME280;46716;38.014;-7.874;2022-11-15T03:19:48;100089.34;;;14.95;100.00
60676;BME280;46716;38.014;-7.874;2022-11-15T03:22:12;100085.63;;;14.97;100.00
60676;BME280;46716;38.014;-7.874;2022-11-15T03:24:36;100091.59;;;15.01;100.00
60676;BME280;46716;38.014;-7.874;2022-11-15T03:26:59;100091.69;;;14.99;100.00
60676;BME280;46716;38.014;-7.874;2022-11-15T03:29:25;100087.44;;;14.97;100.00
60676;BME280;46716;38.014;-7.874;2022-11-15T03:31:50;100082.03;;;14.98;100.00
60676;BME280;46716;38.014;-7.874;2022-11-15T03:34:26;100093.34;;;15.02;100.00
60676;BME280;46716;38.014;-7.874;2022-11-15T03:36:47;100083.81;;;14.98;100.00
60676;BME280;46716;38.014;-7.874;2022-11-15T03:39:08;100069.78;;;14.96;100.00
60676;BME280;46716;38.014;-7.874;2022-11-15T03:43:57;100060.94;;;14.95;100.00
60676;BME280;46716;38.014;-7.874;2022-11-15T03:46:32;100060.66;;;15.00;100.00
60676;BME280;46716;38.014;-7.874;2022-11-15T03:49:02;100051.19;;;14.96;100.00
60676;BME280;46716;38.014;-7.874;2022-11-15T03:51:24;100054.56;;;14.98;100.00
60676;BME280;46716;38.014;-7.874;2022-11-15T03:53:44;100052.78;;;14.98;100.00
60676;BME280;46716;38.014;-7.874;2022-11-15T03:56:04;100049.06;;;15.01;100.00
60676;BME280;46716;38.014;-7.874;2022-11-15T03:58:24;100054.88;;;15.08;100.00
60676;BME280;46716;38.014;-7.874;2022-11-15T04:00:43;100047.09;;;15.04;100.00
60676;BME280;46716;38.014;-7.874;2022-11-15T04:03:03;100050.63;;;15.05;100.00
60676;BME280;46716;38.014;-7.874;2022-11-15T04:05:22;100047.84;;;15.07;100.00
60676;BME280;46716;38.014;-7.874;2022-11-15T04:07:42;100044.44;;;15.04;100.00
60676;BME280;46716;38.014;-7.874;2022-11-15T04:10:01;100043.56;;;15.04;100.00
60676;BME280;46716;38.014;-7.874;2022-11-15T04:12:21;100046.22;;;15.04;100.00
60676;BME280;46716;38.014;-7.874;2022-11-15T04:14:52;100040.25;;;15.00;100.00
60676;BME280;46716;38.014;-7.874;2022-11-15T04:17:25;100033.69;;;15.06;100.00
60676;BME280;46716;38.014;-7.874;2022-11-15T04:19:45;100034.84;;;15.02;100.00
60676;BME280;46716;38.014;-7.874;2022-11-15T04:22:23;100034.66;;;15.05;100.00
60676;BME280;46716;38.014;-7.874;2022-11-15T04:25:20;100038.94;;;15.08;100.00
60676;BME280;46716;38.014;-7.874;2022-11-15T04:27:39;100043.19;;;15.10;100.00
60676;BME280;46716;38.014;-7.874;2022-11-15T04:29:58;100038.63;;;15.12;100.00
60676;BME280;46716;38.014;-7.874;2022-11-15T04:32:17;100031.59;;;15.11;100.00
60676;BME280;46716;38.014;-7.874;2022-11-15T04:34:37;100022.50;;;15.15;100.00
60676;BME280;46716;38.014;-7.874;2022-11-15T04:36:57;100025.06;;;15.17;100.00
60676;BME280;46716;38.014;-7.874;2022-11-15T04:39:31;100029.59;;;15.15;100.00
60676;BME280;46716;38.014;-7.874;2022-11-15T04:41:51;100033.88;;;15.17;100.00
60676;BME280;46716;38.014;-7.874;2022-11-15T04:44:10;100025.78;;;15.19;100.00
60676;BME280;46716;38.014;-7.874;2022-11-15T04:46:30;100020.56;;;15.17;100.00
60676;BME280;46716;38.014;-7.874;2022-11-15T04:48:50;100016.31;;;15.15;100.00
60676;BME280;46716;38.014;-7.874;2022-11-15T04:51:10;100024.28;;;15.15;100.00
60676;BME280;46716;38.014;-7.874;2022-11-15T04:53:29;100026.06;;;15.14;100.00
60676;BME280;46716;38.014;-7.874;2022-11-15T04:55:48;100031.59;;;15.11;100.00
60676;BME280;46716;38.014;-7.874;2022-11-15T04:58:09;100035.22;;;15.10;100.00
60676;BME280;46716;38.014;-7.874;2022-11-15T05:00:29;100023.06;;;15.06;100.00
60676;BME280;46716;38.014;-7.874;2022-11-15T05:02:48;100026.19;;;15.13;100.00
60676;BME280;46716;38.014;-7.874;2022-11-15T05:05:26;100021.91;;;15.10;100.00
60676;BME280;46716;38.014;-7.874;2022-11-15T05:07:45;100035.88;;;15.14;100.00
60676;BME280;46716;38.014;-7.874;2022-11-15T05:10:04;100031.41;;;15.14;100.00
60676;BME280;46716;38.014;-7.874;2022-11-15T05:12:24;100030.91;;;15.22;100.00
60676;BME280;46716;38.014;-7.874;2022-11-15T05:14:43;100023.91;;;15.21;100.00
60676;BME280;46716;38.014;-7.874;2022-11-15T05:17:03;100030.72;;;15.25;100.00
60676;BME280;46716;38.014;-7.874;2022-11-15T05:19:22;100028.16;;;15.24;100.00
60676;BME280;46716;38.014;-7.874;2022-11-15T05:21:42;100024.53;;;15.25;100.00
60676;BME280;46716;38.014;-7.874;2022-11-15T05:24:02;100028.94;;;15.26;100.00
60676;BME280;46716;38.014;-7.874;2022-11-15T05:26:22;100031.59;;;15.26;100.00
60676;BME280;46716;38.014;-7.874;2022-11-15T05:28:41;100043.25;;;15.23;100.00
60676;BME280;46716;38.014;-7.874;2022-11-15T05:31:12;100042.41;;;15.23;100.00
60676;BME280;46716;38.014;-7.874;2022-11-15T05:33:33;100051.25;;;15.23;100.00
60676;BME280;46716;38.014;-7.874;2022-11-15T05:36:04;100055.53;;;15.26;100.00
60676;BME280;46716;38.014;-7.874;2022-11-15T05:38:25;100045.19;;;15.21;100.00
60676;BME280;46716;38.014;-7.874;2022-11-15T05:40:45;100063.50;;;15.26;100.00
60676;BME280;46716;38.014;-7.874;2022-11-15T05:43:05;100054.75;;;15.24;100.00
60676;BME280;46716;38.014;-7.874;2022-11-15T05:45:24;100061.13;;;15.21;100.00
60676;BME280;46716;38.014;-7.874;2022-11-15T05:47:44;100067.19;;;15.23;100.00
60676;BME280;46716;38.014;-7.874;2022-11-15T05:50:05;100063.13;;;15.17;100.00
60676;BME280;46716;38.014;-7.874;2022-11-15T05:52:29;100063.13;;;15.17;100.00
60676;BME280;46716;38.014;-7.874;2022-11-15T05:54:50;100060.47;;;15.17;100.00
60676;BME280;46716;38.014;-7.874;2022-11-15T05:57:10;100063.31;;;15.14;100.00
60676;BME280;46716;38.014;-7.874;2022-11-15T05:59:30;100052.84;;;15.11;100.00
60676;BME280;46716;38.014;-7.874;2022-11-15T06:01:50;100055.34;;;15.14;100.00
60676;BME280;46716;38.014;-7.874;2022-11-15T06:04:10;100051.94;;;15.12;100.00
60676;BME280;46716;38.014;-7.874;2022-11-15T06:06:29;100055.34;;;15.14;100.00
60676;BME280;46716;38.014;-7.874;2022-11-15T06:08:49;100052.31;;;15.06;100.00
60676;BME280;46716;38.014;-7.874;2022-11-15T06:11:09;100050.03;;;15.00;100.00
60676;BME280;46716;38.014;-7.874;2022-11-15T06:13:28;100039.78;;;14.94;100.00
60676;BME280;46716;38.014;-7.874;2022-11-15T06:15:48;100048.69;;;14.92;100.00
60676;BME280;46716;38.014;-7.874;2022-11-15T06:18:07;100038.63;;;14.83;100.00
60676;BME280;46716;38.014;-7.874;2022-11-15T06:20:28;100043.22;;;14.81;100.00
60676;BME280;46716;38.014;-7.874;2022-11-15T06:22:48;100047.91;;;14.76;100.00
60676;BME280;46716;38.014;-7.874;2022-11-15T06:25:07;100043.53;;;14.75;100.00
60676;BME280;46716;38.014;-7.874;2022-11-15T06:27:26;100047.81;;;14.77;100.00
60676;BME280;46716;38.014;-7.874;2022-11-15T06:29:46;100048.00;;;14.74;100.00
60676;BME280;46716;38.014;-7.874;2022-11-15T06:32:05;100050.75;;;14.73;100.00
60676;BME280;46716;38.014;-7.874;2022-11-15T06:34:24;100047.16;;;14.74;100.00
60676;BME280;46716;38.014;-7.874;2022-11-15T06:36:44;100045.25;;;14.76;100.00
60676;BME280;46716;38.014;-7.874;2022-11-15T06:39:04;100041.84;;;14.74;100.00
60676;BME280;46716;38.014;-7.874;2022-11-15T06:41:24;100051.28;;;14.79;100.00
60676;BME280;46716;38.014;-7.874;2022-11-15T06:43:46;100051.91;;;14.83;100.00
60676;BME280;46716;38.014;-7.874;2022-11-15T06:46:06;100050.59;;;14.90;100.00
60676;BME280;46716;38.014;-7.874;2022-11-15T06:48:26;100049.47;;;14.95;100.00
60676;BME280;46716;38.014;-7.874;2022-11-15T06:50:52;100052.69;;;15.00;100.00
60676;BME280;46716;38.014;-7.874;2022-11-15T06:53:12;100052.69;;;15.00;100.00
60676;BME280;46716;38.014;-7.874;2022-11-15T06:55:31;100060.56;;;15.01;100.00
60676;BME280;46716;38.014;-7.874;2022-11-15T06:57:52;100066.47;;;15.07;100.00
60676;BME280;46716;38.014;-7.874;2022-11-15T07:00:12;100054.88;;;15.08;100.00
60676;BME280;46716;38.014;-7.874;2022-11-15T07:02:31;100054.00;;;15.07;100.00
60676;BME280;46716;38.014;-7.874;2022-11-15T07:04:51;100065.22;;;15.12;100.00
60676;BME280;46716;38.014;-7.874;2022-11-15T07:07:10;100061.59;;;15.13;100.00
60676;BME280;46716;38.014;-7.874;2022-11-15T07:09:30;100066.84;;;15.15;100.00
60676;BME280;46716;38.014;-7.874;2022-11-15T07:11:49;100058.84;;;15.15;100.00
60676;BME280;46716;38.014;-7.874;2022-11-15T07:14:09;100052.56;;;15.16;100.00
60676;BME280;46716;38.014;-7.874;2022-11-15T07:16:28;100053.44;;;15.16;100.00
60676;BME280;46716;38.014;-7.874;2022-11-15T07:18:48;100058.56;;;15.20;100.00
60676;BME280;46716;38.014;-7.874;2022-11-15T07:21:09;100061.78;;;15.25;100.00
60676;BME280;46716;38.014;-7.874;2022-11-15T07:23:29;100060.06;;;15.24;100.00
60676;BME280;46716;38.014;-7.874;2022-11-15T07:25:49;100044.50;;;15.17;100.00
60676;BME280;46716;38.014;-7.874;2022-11-15T07:28:08;100048.91;;;15.19;100.00
60676;BME280;46716;38.014;-7.874;2022-11-15T07:30:28;100054.94;;;15.21;100.00
60676;BME280;46716;38.014;-7.874;2022-11-15T07:32:47;100057.50;;;15.22;100.00
60676;BME280;46716;38.014;-7.874;2022-11-15T07:35:06;100054.94;;;15.21;100.00
60676;BME280;46716;38.014;-7.874;2022-11-15T07:37:26;100062.84;;;15.22;100.00
60676;BME280;46716;38.014;-7.874;2022-11-15T07:39:45;100075.66;;;15.30;100.00
60676;BME280;46716;38.014;-7.874;2022-11-15T07:42:05;100059.69;;;15.30;100.00
60676;BME280;46716;38.014;-7.874;2022-11-15T07:44:43;100076.09;;;15.37;100.00
60676;BME280;46716;38.014;-7.874;2022-11-15T07:47:02;100065.28;;;15.40;100.00
60676;BME280;46716;38.014;-7.874;2022-11-15T07:49:21;100064.13;;;15.44;100.00
60676;BME280;46716;38.014;-7.874;2022-11-15T07:51:41;100072.09;;;15.44;100.00
60676;BME280;46716;38.014;-7.874;2022-11-15T07:54:00;100062.31;;;15.45;100.00
60676;BME280;46716;38.014;-7.874;2022-11-15T07:56:20;100078.97;;;15.48;100.00
60676;BME280;46716;38.014;-7.874;2022-11-15T07:58:40;100086.84;;;15.50;100.00
60676;BME280;46716;38.014;-7.874;2022-11-15T08:01:06;100093.78;;;15.52;100.00
60676;BME280;46716;38.014;-7.874;2022-11-15T08:03:25;100099.28;;;15.49;100.00
60676;BME280;46716;38.014;-7.874;2022-11-15T08:05:50;100100.34;;;15.47;100.00
60676;BME280;46716;38.014;-7.874;2022-11-15T08:08:11;100104.69;;;15.48;100.00
60676;BME280;46716;38.014;-7.874;2022-11-15T08:10:30;100102.81;;;15.50;100.00
60676;BME280;46716;38.014;-7.874;2022-11-15T08:12:58;100104.50;;;15.51;100.00
60676;BME280;46716;38.014;-7.874;2022-11-15T08:15:17;100104.41;;;15.52;100.00
60676;BME280;46716;38.014;-7.874;2022-11-15T08:17:36;100105.38;;;15.51;100.00
60676;BME280;46716;38.014;-7.874;2022-11-15T08:19:56;100091.69;;;15.43;100.00
60676;BME280;46716;38.014;-7.874;2022-11-15T08:22:15;100112.09;;;15.57;100.00
60676;BME280;46716;38.014;-7.874;2022-11-15T08:24:35;100113.63;;;15.61;100.00
60676;BME280;46716;38.014;-7.874;2022-11-15T08:26:54;100107.91;;;15.67;100.00
60676;BME280;46716;38.014;-7.874;2022-11-15T08:29:14;100108.44;;;15.73;100.00
60676;BME280;46716;38.014;-7.874;2022-11-15T08:31:34;100109.66;;;15.81;100.00
60676;BME280;46716;38.014;-7.874;2022-11-15T08:33:53;100113.75;;;15.87;100.00
60676;BME280;46716;38.014;-7.874;2022-11-15T08:36:15;100121.41;;;15.92;100.00
60676;BME280;46716;38.014;-7.874;2022-11-15T08:38:35;100119.63;;;15.92;100.00
60676;BME280;46716;38.014;-7.874;2022-11-15T08:41:01;100116.59;;;15.99;100.00
60676;BME280;46716;38.014;-7.874;2022-11-15T08:43:21;100120.31;;;15.96;100.00
60676;BME280;46716;38.014;-7.874;2022-11-15T08:45:41;100117.13;;;16.04;100.00
60676;BME280;46716;38.014;-7.874;2022-11-15T08:48:01;100118.22;;;16.14;100.00
60676;BME280;46716;38.014;-7.874;2022-11-15T08:50:21;100123.34;;;16.17;100.00
60676;BME280;46716;38.014;-7.874;2022-11-15T08:52:41;100116.34;;;16.16;100.00
60676;BME280;46716;38.014;-7.874;2022-11-15T08:55:00;100120.97;;;16.00;100.00
60676;BME280;46716;38.014;-7.874;2022-11-15T08:57:20;100120.50;;;15.93;100.00
60676;BME280;46716;38.014;-7.874;2022-11-15T08:59:39;100136.47;;;15.93;100.00
60676;BME280;46716;38.014;-7.874;2022-11-15T09:01:58;100131.97;;;15.93;100.00
60676;BME280;46716;38.014;-7.874;2022-11-15T09:04:18;100126.94;;;15.89;100.00
60676;BME280;46716;38.014;-7.874;2022-11-15T09:06:37;100135.22;;;15.99;100.00
60676;BME280;46716;38.014;-7.874;2022-11-15T09:08:57;100139.63;;;16.13;100.00
60676;BME280;46716;38.014;-7.874;2022-11-15T09:11:16;100133.63;;;16.24;100.00
60676;BME280;46716;38.014;-7.874;2022-11-15T09:13:39;100143.06;;;16.42;100.00
60676;BME280;46716;38.014;-7.874;2022-11-15T09:16:08;100146.34;;;17.00;100.00
60676;BME280;46716;38.014;-7.874;2022-11-15T09:18:27;100146.88;;;17.31;100.00
60676;BME280;46716;38.014;-7.874;2022-11-15T09:20:47;100150.84;;;17.51;100.00
60676;BME280;46716;38.014;-7.874;2022-11-15T09:23:09;100136.69;;;17.62;100.00
60676;BME280;46716;38.014;-7.874;2022-11-15T09:25:29;100139.53;;;17.85;100.00
60676;BME280;46716;38.014;-7.874;2022-11-15T09:27:49;100145.75;;;18.10;100.00
60676;BME280;46716;38.014;-7.874;2022-11-15T09:30:09;100136.19;;;18.43;100.00
60676;BME280;46716;38.014;-7.874;2022-11-15T09:32:30;100129.03;;;18.80;100.00
60676;BME280;46716;38.014;-7.874;2022-11-15T09:34:52;100130.44;;;19.20;100.00
60676;BME280;46716;38.014;-7.874;2022-11-15T09:37:12;100130.44;;;19.54;100.00
60676;BME280;46716;38.014;-7.874;2022-11-15T09:39:31;100131.13;;;19.79;100.00
60676;BME280;46716;38.014;-7.874;2022-11-15T09:45:18;100121.06;;;20.37;100.00
60676;BME280;46716;38.014;-7.874;2022-11-15T09:50:41;100131.13;;;20.99;100.00
60676;BME280;46716;38.014;-7.874;2022-11-15T09:52:44;100124.34;;;21.26;100.00
60676;BME280;46716;38.014;-7.874;2022-11-15T09:54:48;100118.06;;;21.47;100.00
60676;BME280;46716;38.014;-7.874;2022-11-15T09:56:50;100125.31;;;21.25;97.74
60676;BME280;46716;38.014;-7.874;2022-11-15T09:59:20;100136.00;;;21.46;100.00
60676;BME280;46716;38.014;-7.874;2022-11-15T10:03:37;100140.19;;;21.70;100.00
60676;BME280;46716;38.014;-7.874;2022-11-15T10:05:48;100139.84;;;21.95;96.56
60676;BME280;46716;38.014;-7.874;2022-11-15T10:12:39;100130.63;;;20.30;98.39
60676;BME280;46716;38.014;-7.874;2022-11-15T10:14:43;100112.25;;;19.81;100.00
60676;BME280;46716;38.014;-7.874;2022-11-15T10:17:15;100120.66;;;19.76;100.00
60676;BME280;46716;38.014;-7.874;2022-11-15T10:20:30;100114.09;;;19.69;100.00
60676;BME280;46716;38.014;-7.874;2022-11-15T10:24:45;100110.59;;;19.34;100.00
60676;BME280;46716;38.014;-7.874;2022-11-15T10:26:47;100117.03;;;19.43;100.00
60676;BME280;46716;38.014;-7.874;2022-11-15T10:28:48;100105.97;;;19.48;100.00
60676;BME280;46716;38.014;-7.874;2022-11-15T10:30:55;100113.63;;;19.41;100.00
60676;BME280;46716;38.014;-7.874;2022-11-15T10:33:24;100112.41;;;19.22;100.00
60676;BME280;46716;38.014;-7.874;2022-11-15T10:35:29;100115.84;;;19.13;100.00
60676;BME280;46716;38.014;-7.874;2022-11-15T10:37:31;100110.47;;;19.36;100.00
60676;BME280;46716;38.014;-7.874;2022-11-15T10:39:33;100116.66;;;19.59;100.00
60676;BME280;46716;38.014;-7.874;2022-11-15T10:41:39;100105.94;;;19.70;100.00
60676;BME280;46716;38.014;-7.874;2022-11-15T10:43:41;100101.91;;;19.76;97.29
60676;BME280;46716;38.014;-7.874;2022-11-15T10:45:43;100100.03;;;19.88;97.57
60676;BME280;46716;38.014;-7.874;2022-11-15T10:47:44;100114.75;;;19.94;98.04
60676;BME280;46716;38.014;-7.874;2022-11-15T10:49:54;100111.75;;;19.87;96.16
60676;BME280;46716;38.014;-7.874;2022-11-15T10:54:12;100098.09;;;19.90;96.30
60676;BME280;46716;38.014;-7.874;2022-11-15T10:56:21;100087.13;;;19.93;97.13
60676;BME280;46716;38.014;-7.874;2022-11-15T10:58:35;100076.22;;;20.39;96.58
60676;BME280;46716;38.014;-7.874;2022-11-15T11:00:38;100064.44;;;20.73;91.06
60676;BME280;46716;38.014;-7.874;2022-11-15T11:03:06;100079.19;;;21.51;90.30
60676;BME280;46716;38.014;-7.874;2022-11-15T11:05:48;100073.31;;;22.46;85.48
60676;BME280;46716;38.014;-7.874;2022-11-15T11:08:22;100059.53;;;23.17;79.31
60676;BME280;46716;38.014;-7.874;2022-11-15T11:10:25;100060.94;;;23.49;77.47
60676;BME280;46716;38.014;-7.874;2022-11-15T11:12:33;100058.16;;;23.41;74.76
60676;BME280;46716;38.014;-7.874;2022-11-15T11:14:36;100046.59;;;23.21;78.01
60676;BME280;46716;38.014;-7.874;2022-11-15T11:16:44;100054.88;;;22.71;77.24
60676;BME280;46716;38.014;-7.874;2022-11-15T11:21:14;100047.59;;;22.34;80.81
60676;BME280;46716;38.014;-7.874;2022-11-15T11:28:46;100037.41;;;22.08;81.89
60676;BME280;46716;38.014;-7.874;2022-11-15T11:37:42;100023.47;;;21.43;82.97
60676;BME280;46716;38.014;-7.874;2022-11-15T11:42:40;100024.50;;;20.49;86.75
60676;BME280;46716;38.014;-7.874;2022-11-15T11:45:47;100033.78;;;20.23;88.73
60676;BME280;46716;38.014;-7.874;2022-11-15T11:47:27;100040.59;;;19.94;91.82
60676;BME280;46716;38.014;-7.874;2022-11-15T11:49:50;100034.81;;;19.78;91.80
60676;BME280;46716;38.014;-7.874;2022-11-15T11:56:48;100013.28;;;19.35;94.81
60676;BME280;46716;38.014;-7.874;2022-11-15T11:58:50;100000.38;;;19.29;95.09
60676;BME280;46716;38.014;-7.874;2022-11-15T12:01:24;100001.31;;;19.39;96.69
60676;BME280;46716;38.014;-7.874;2022-11-15T12:03:43;100007.81;;;19.69;96.95
60676;BME280;46716;38.014;-7.874;2022-11-15T12:05:48;99982.34;;;20.08;93.68
60676;BME280;46716;38.014;-7.874;2022-11-15T12:07:53;99987.13;;;20.57;92.49
60676;BME280;46716;38.014;-7.874;2022-11-15T12:10:08;99980.91;;;21.39;89.31
60676;BME280;46716;38.014;-7.874;2022-11-15T12:12:27;99978.63;;;22.33;79.07
60676;BME280;46716;38.014;-7.874;2022-11-15T12:16:41;99967.09;;;22.03;77.41
60676;BME280;46716;38.014;-7.874;2022-11-15T12:18:54;99964.16;;;21.76;77.27
60676;BME280;46716;38.014;-7.874;2022-11-15T12:21:07;99966.94;;;21.74;79.80
60676;BME280;46716;38.014;-7.874;2022-11-15T12:23:19;99971.59;;;21.33;79.56
60676;BME280;46716;38.014;-7.874;2022-11-15T12:25:36;99977.00;;;20.92;82.75
60676;BME280;46716;38.014;-7.874;2022-11-15T12:27:54;99964.38;;;20.82;84.28
60676;BME280;46716;38.014;-7.874;2022-11-15T12:30:00;99968.44;;;20.77;84.81
60676;BME280;46716;38.014;-7.874;2022-11-15T12:32:03;99964.63;;;20.69;85.12
60676;BME280;46716;38.014;-7.874;2022-11-15T12:39:01;99964.66;;;19.84;90.88
60676;BME280;46716;38.014;-7.874;2022-11-15T12:41:15;99965.94;;;19.68;93.74
60676;BME280;46716;38.014;-7.874;2022-11-15T12:45:28;99950.34;;;19.41;97.16
60676;BME280;46716;38.014;-7.874;2022-11-15T12:47:29;99941.69;;;19.49;95.44
60676;BME280;46716;38.014;-7.874;2022-11-15T12:53:52;99925.84;;;20.52;89.71
60676;BME280;46716;38.014;-7.874;2022-11-15T13:00:43;99926.06;;;22.01;79.04
60676;BME280;46716;38.014;-7.874;2022-11-15T13:02:45;99939.94;;;21.96;78.51
60676;BME280;46716;38.014;-7.874;2022-11-15T13:04:49;99925.38;;;21.79;79.40
60676;BME280;46716;38.014;-7.874;2022-11-15T13:07:10;99926.38;;;21.78;79.89
60676;BME280;46716;38.014;-7.874;2022-11-15T13:11:46;99903.59;;;21.92;79.48
60676;BME280;46716;38.014;-7.874;2022-11-15T13:13:48;99909.66;;;22.04;77.83
60676;BME280;46716;38.014;-7.874;2022-11-15T13:15:58;99903.25;;;22.15;77.86
60676;BME280;46716;38.014;-7.874;2022-11-15T13:18:40;99899.16;;;22.10;77.14